createdAt,value
2023-04-28T00:00:12.037Z,5.88
2023-04-28T00:02:40.500Z,4.55
2023-04-28T00:05:11.098Z,5.03
2023-04-28T00:07:39.568Z,5.15
2023-04-28T00:10:09.375Z,7.32
2023-04-28T00:12:37.664Z,3.03
2023-04-28T00:15:06.966Z,2.50
2023-04-28T00:17:35.965Z,4.75
2023-04-28T00:20:04.569Z,5.35
2023-04-28T00:22:35.273Z,3.10
2023-04-28T00:25:03.849Z,3.85
2023-04-28T00:27:31.940Z,6.55
2023-04-28T00:30:00.205Z,4.43
2023-04-28T00:32:28.336Z,3.42
2023-04-28T00:34:58.564Z,5.93
2023-04-28T00:37:26.691Z,3.05
2023-04-28T00:39:59.388Z,3.75
2023-04-28T00:42:27.666Z,4.25
2023-04-28T00:44:55.688Z,5.00
2023-04-28T00:47:24.168Z,4.03
2023-04-28T00:49:53.420Z,5.35
2023-04-28T00:52:22.028Z,6.53
2023-04-28T00:54:50.831Z,7.13
2023-04-28T00:57:20.852Z,4.43
2023-04-28T00:59:49.115Z,4.25
2023-04-28T01:02:18.886Z,4.22
2023-04-28T01:04:48.126Z,4.63
2023-04-28T01:07:16.413Z,5.13
2023-04-28T01:09:46.555Z,6.93
2023-04-28T01:12:14.914Z,7.38
2023-04-28T01:14:45.362Z,5.40
2023-04-28T01:17:15.093Z,3.63
2023-04-28T01:19:43.540Z,5.97
2023-04-28T01:22:15.559Z,3.88
2023-04-28T01:24:45.250Z,5.68
2023-04-28T01:29:55.625Z,13.23
2023-04-28T01:32:23.816Z,6.07
2023-04-28T01:34:52.091Z,3.80
2023-04-28T01:37:20.350Z,5.88
2023-04-28T01:39:48.624Z,5.43
2023-04-28T01:42:16.834Z,4.72
2023-04-28T01:44:44.873Z,4.93
2023-04-28T01:47:14.892Z,3.70
2023-04-28T01:49:43.072Z,7.30
2023-04-28T01:52:11.514Z,7.07
2023-04-28T01:55:34.664Z,4.13
2023-04-28T01:58:02.872Z,7.57
2023-04-28T02:00:31.368Z,7.70
2023-04-28T02:03:01.126Z,7.32
2023-04-28T02:05:29.247Z,4.75
2023-04-28T02:07:57.532Z,6.40
2023-04-28T02:10:25.700Z,5.22
2023-04-28T02:12:53.984Z,3.65
2023-04-28T02:15:22.129Z,5.70
2023-04-28T02:17:50.397Z,3.90
2023-04-28T02:20:20.131Z,5.82
2023-04-28T02:22:48.978Z,5.82
2023-04-28T02:25:17.099Z,7.85
2023-04-28T02:27:45.168Z,6.38
2023-04-28T02:30:13.963Z,3.28
2023-04-28T02:32:42.480Z,4.40
2023-04-28T02:35:11.024Z,5.38
2023-04-28T02:37:40.613Z,7.78
2023-04-28T02:40:10.150Z,6.93
2023-04-28T02:42:38.428Z,4.72
2023-04-28T02:45:08.359Z,4.18
2023-04-28T02:47:36.967Z,5.90
2023-04-28T02:50:05.271Z,7.65
2023-04-28T02:52:33.722Z,4.78
2023-04-28T02:55:04.929Z,5.80
2023-04-28T02:57:33.369Z,4.03
2023-04-28T03:00:01.403Z,9.48
2023-04-28T03:02:29.588Z,5.28
2023-04-28T03:04:57.975Z,6.05
2023-04-28T03:07:26.628Z,9.18
2023-04-28T03:09:55.416Z,4.90
2023-04-28T03:12:24.880Z,13.98
2023-04-28T03:14:54.029Z,8.05
2023-04-28T03:17:22.450Z,5.80
2023-04-28T03:19:50.799Z,6.03
2023-04-28T03:22:19.076Z,3.70
2023-04-28T03:24:47.404Z,3.50
2023-04-28T03:27:16.603Z,7.40
2023-04-28T03:29:46.355Z,6.47
2023-04-28T03:32:14.911Z,3.80
2023-04-28T03:34:43.339Z,10.02
2023-04-28T03:37:11.675Z,4.20
2023-04-28T03:39:39.915Z,7.38
2023-04-28T03:42:08.690Z,8.23
2023-04-28T03:44:36.943Z,3.80
2023-04-28T03:47:06.894Z,4.53
2023-04-28T03:49:35.446Z,7.03
2023-04-28T03:52:04.716Z,5.60
2023-04-28T03:54:33.304Z,4.97
2023-04-28T03:57:03.391Z,7.60
2023-04-28T03:59:31.974Z,6.82
2023-04-28T04:02:01.015Z,6.40
2023-04-28T04:04:31.197Z,4.45
2023-04-28T04:07:00.058Z,4.68
2023-04-28T04:09:29.364Z,8.43
2023-04-28T04:11:58.873Z,6.78
2023-04-28T04:14:27.116Z,5.47
2023-04-28T04:16:56.103Z,5.78
2023-04-28T04:19:27.102Z,7.82
2023-04-28T04:21:57.202Z,4.50
2023-04-28T04:24:26.018Z,5.88
2023-04-28T04:26:54.859Z,4.22
2023-04-28T04:29:23.029Z,7.25
2023-04-28T04:31:51.546Z,5.22
2023-04-28T04:34:19.640Z,6.63
2023-04-28T04:36:48.073Z,6.32
2023-04-28T04:39:18.309Z,6.45
2023-04-28T04:41:46.555Z,5.43
2023-04-28T04:44:15.467Z,6.88
2023-04-28T04:46:44.088Z,6.03
2023-04-28T04:49:12.917Z,6.15
2023-04-28T04:51:41.351Z,3.85
2023-04-28T04:54:09.828Z,8.43
2023-04-28T04:56:39.749Z,8.30
2023-04-28T04:59:08.190Z,8.60
2023-04-28T05:01:36.644Z,5.85
2023-04-28T05:04:05.323Z,4.80
2023-04-28T05:06:35.041Z,5.63
2023-04-28T05:09:03.209Z,7.97
2023-04-28T05:11:31.538Z,5.95
2023-04-28T05:14:02.076Z,10.70
2023-04-28T05:16:30.588Z,8.40
2023-04-28T05:18:59.150Z,6.78
2023-04-28T05:21:27.735Z,7.32
2023-04-28T05:23:57.900Z,5.57
2023-04-28T05:26:26.378Z,10.10
2023-04-28T05:28:55.080Z,4.55
2023-04-28T05:31:25.654Z,4.47
2023-04-28T05:33:54.057Z,3.33
2023-04-28T05:36:22.585Z,6.57
2023-04-28T05:38:51.101Z,12.88
2023-04-28T05:41:19.761Z,7.40
2023-04-28T05:43:51.859Z,10.57
2023-04-28T05:46:30.211Z,4.45
2023-04-28T05:49:01.594Z,4.90
2023-04-28T05:51:29.964Z,6.20
2023-04-28T05:53:58.921Z,11.20
2023-04-28T05:56:29.566Z,8.18
2023-04-28T05:58:58.799Z,12.70
2023-04-28T06:01:27.157Z,8.80
2023-04-28T06:03:58.217Z,12.23
2023-04-28T06:06:29.871Z,6.05
2023-04-28T06:08:58.269Z,8.90
2023-04-28T06:11:27.409Z,4.85
2023-04-28T06:13:55.924Z,4.30
2023-04-28T06:16:24.647Z,4.13
2023-04-28T06:18:53.514Z,6.53
2023-04-28T06:21:22.976Z,5.40
2023-04-28T06:23:53.250Z,6.70
2023-04-28T06:26:21.796Z,5.47
2023-04-28T06:28:50.064Z,4.30
2023-04-28T06:31:18.850Z,6.43
2023-04-28T06:33:47.132Z,9.50
2023-04-28T06:36:17.909Z,7.25
2023-04-28T06:38:47.062Z,4.57
2023-04-28T06:41:16.591Z,5.25
2023-04-28T06:43:45.608Z,4.00
2023-04-28T06:46:14.138Z,4.85
2023-04-28T06:48:42.400Z,4.85
2023-04-28T06:51:11.934Z,5.15
2023-04-28T06:53:40.574Z,6.50
2023-04-28T06:56:11.371Z,5.65
2023-04-28T06:58:41.632Z,5.57
2023-04-28T07:01:10.009Z,5.28
2023-04-28T07:03:39.514Z,8.57
2023-04-28T07:06:08.580Z,4.80
2023-04-28T07:08:37.413Z,8.50
2023-04-28T07:11:07.101Z,4.95
2023-04-28T07:13:35.608Z,5.68
2023-04-28T07:16:06.140Z,7.13
2023-04-28T07:18:35.377Z,5.90
2023-04-28T07:21:05.499Z,5.88
2023-04-28T07:23:34.473Z,7.78
2023-04-28T07:26:02.782Z,7.97
2023-04-28T07:28:32.283Z,10.55
2023-04-28T07:31:00.955Z,8.23
2023-04-28T07:33:31.657Z,6.20
2023-04-28T07:35:59.724Z,9.00
2023-04-28T07:38:28.205Z,5.50
2023-04-28T07:40:56.604Z,6.80
2023-04-28T07:43:25.560Z,11.55
2023-04-28T07:45:55.681Z,8.60
2023-04-28T07:48:24.800Z,7.40
2023-04-28T07:50:55.207Z,6.45
2023-04-28T07:53:23.527Z,8.45
2023-04-28T07:55:52.010Z,7.22
2023-04-28T07:58:20.958Z,6.72
2023-04-28T08:00:49.300Z,9.50
2023-04-28T08:03:17.826Z,5.63
2023-04-28T08:05:46.618Z,8.55
2023-04-28T08:08:16.693Z,10.07
2023-04-28T08:10:45.481Z,7.28
2023-04-28T08:13:14.593Z,7.88
2023-04-28T08:15:43.420Z,8.25
2023-04-28T08:18:12.030Z,8.25
2023-04-28T08:20:40.685Z,17.08
2023-04-28T08:23:09.258Z,9.75
2023-04-28T08:25:39.586Z,11.98
2023-04-28T08:28:09.154Z,7.35
2023-04-28T08:30:39.141Z,8.38
2023-04-28T08:33:08.568Z,8.18
2023-04-28T08:35:38.099Z,8.23
2023-04-28T08:38:07.474Z,9.77
2023-04-28T08:40:36.889Z,8.45
2023-04-28T08:43:07.421Z,7.45
2023-04-28T08:45:43.886Z,10.23
2023-04-28T08:48:20.603Z,12.60
2023-04-28T08:50:52.298Z,11.85
2023-04-28T08:53:27.174Z,9.70
2023-04-28T08:55:58.185Z,7.60
2023-04-28T08:58:29.650Z,9.73
2023-04-28T09:00:58.977Z,9.70
2023-04-28T09:03:28.952Z,9.43
2023-04-28T09:05:58.070Z,9.38
2023-04-28T09:08:26.449Z,8.15
2023-04-28T09:11:08.926Z,6.20
2023-04-28T09:13:38.944Z,9.32
2023-04-28T09:16:08.569Z,8.05
2023-04-28T09:18:36.948Z,10.85
2023-04-28T09:21:06.340Z,8.45
2023-04-28T09:23:35.779Z,6.70
2023-04-28T09:26:05.666Z,7.72
2023-04-28T09:28:36.072Z,7.63
2023-04-28T09:31:06.631Z,9.20
2023-04-28T09:33:35.919Z,9.20
2023-04-28T09:36:04.771Z,8.85
2023-04-28T09:38:45.044Z,8.68
2023-04-28T09:41:14.126Z,14.32
2023-04-28T09:43:42.612Z,8.90
2023-04-28T09:46:13.132Z,13.48
2023-04-28T09:48:42.323Z,7.65
2023-04-28T09:51:14.433Z,9.00
2023-04-28T09:53:45.462Z,11.10
2023-04-28T09:56:14.607Z,12.68
2023-04-28T09:58:47.299Z,8.65
2023-04-28T10:01:17.525Z,7.45
2023-04-28T10:04:01.761Z,9.52
2023-04-28T10:06:31.398Z,11.40
2023-04-28T10:09:00.943Z,11.15
2023-04-28T10:11:31.004Z,10.10
2023-04-28T10:13:59.906Z,10.13
2023-04-28T10:16:33.268Z,14.68
2023-04-28T10:19:04.960Z,14.57
2023-04-28T10:21:36.977Z,11.80
2023-04-28T10:24:16.417Z,14.85
2023-04-28T10:27:07.296Z,12.98
2023-04-28T10:29:36.770Z,12.43
2023-04-28T10:32:34.754Z,15.27
2023-04-28T10:35:37.642Z,12.00
2023-04-28T10:38:08.596Z,10.82
2023-04-28T10:40:39.075Z,8.55
2023-04-28T10:43:08.659Z,10.65
2023-04-28T10:46:07.028Z,9.68
2023-04-28T10:49:10.496Z,9.77
2023-04-28T10:51:39.446Z,9.98
2023-04-28T10:54:21.723Z,7.93
2023-04-28T10:57:21.674Z,8.90
2023-04-28T10:59:53.200Z,7.35
2023-04-28T11:02:44.701Z,9.23
2023-04-28T11:05:19.541Z,8.93
2023-04-28T11:08:31.501Z,8.20
2023-04-28T11:11:17.491Z,7.53
2023-04-28T11:13:48.605Z,10.10
2023-04-28T11:16:19.574Z,6.82
2023-04-28T11:18:55.667Z,7.07
2023-04-28T11:21:29.523Z,6.72
2023-04-28T11:23:59.562Z,5.10
2023-04-28T11:26:29.905Z,6.78
2023-04-28T11:29:00.290Z,8.48
2023-04-28T11:31:29.835Z,4.35
2023-04-28T11:34:05.702Z,7.00
2023-04-28T11:36:37.842Z,6.10
2023-04-28T11:39:08.177Z,5.18
2023-04-28T11:41:37.855Z,5.32
2023-04-28T11:44:14.396Z,4.88
2023-04-28T11:46:51.795Z,10.77
2023-04-28T11:49:21.340Z,5.22
2023-04-28T11:51:53.081Z,5.65
2023-04-28T11:54:27.290Z,6.05
2023-04-28T11:56:57.836Z,4.22
2023-04-28T11:59:28.788Z,4.15
2023-04-28T12:01:59.682Z,6.93
2023-04-28T12:04:30.910Z,5.65
2023-04-28T12:07:06.334Z,4.85
2023-04-28T12:09:37.145Z,4.88
2023-04-28T12:12:07.262Z,4.63
2023-04-28T12:14:56.577Z,3.75
2023-04-28T12:17:26.835Z,5.47
2023-04-28T12:19:56.210Z,4.75
2023-04-28T12:22:28.083Z,4.18
2023-04-28T12:25:08.462Z,8.20
2023-04-28T12:27:40.715Z,4.15
2023-04-28T12:30:28.759Z,4.70
2023-04-28T12:33:00.249Z,4.68
2023-04-28T12:35:31.720Z,4.50
2023-04-28T12:38:01.868Z,8.48
2023-04-28T12:40:30.664Z,3.95
2023-04-28T12:42:59.304Z,6.70
2023-04-28T12:45:28.102Z,5.63
2023-04-28T12:47:57.217Z,4.43
2023-04-28T12:50:27.696Z,4.47
2023-04-28T12:52:57.991Z,4.97
2023-04-28T12:55:29.032Z,3.85
2023-04-28T12:57:57.909Z,3.83
2023-04-28T13:00:26.769Z,4.20
2023-04-28T13:02:59.148Z,4.47
2023-04-28T13:05:28.096Z,4.35
2023-04-28T13:07:57.482Z,3.50
2023-04-28T13:10:26.843Z,5.32
2023-04-28T13:12:57.012Z,5.13
2023-04-28T13:15:26.213Z,4.85
2023-04-28T13:17:57.220Z,8.27
2023-04-28T13:20:26.177Z,3.33
2023-04-28T13:22:55.077Z,4.53
2023-04-28T13:25:24.190Z,5.63
2023-04-28T13:27:53.070Z,5.32
2023-04-28T13:30:23.718Z,4.55
2023-04-28T13:32:54.487Z,4.97
2023-04-28T13:35:26.772Z,3.60
2023-04-28T13:38:02.739Z,3.55
2023-04-28T13:40:31.729Z,5.75
2023-04-28T13:43:00.678Z,4.05
2023-04-28T13:45:31.803Z,4.25
2023-04-28T13:48:01.502Z,4.63
2023-04-28T13:50:30.204Z,4.13
2023-04-28T13:53:00.260Z,3.58
2023-04-28T13:55:29.128Z,4.35
2023-04-28T13:58:01.802Z,5.43
2023-04-28T14:00:32.821Z,4.00
2023-04-28T14:03:02.408Z,3.45
2023-04-28T14:05:36.099Z,13.32
2023-04-28T14:08:11.620Z,4.22
2023-04-28T14:10:40.356Z,4.15
2023-04-28T14:13:10.021Z,5.50
2023-04-28T14:15:51.242Z,4.18
2023-04-28T14:18:26.925Z,4.82
2023-04-28T14:20:56.088Z,5.32
2023-04-28T14:23:25.304Z,5.25
2023-04-28T14:25:56.465Z,6.65
2023-04-28T14:28:24.922Z,4.18
2023-04-28T14:30:57.292Z,6.10
2023-04-28T14:33:26.172Z,3.97
2023-04-28T14:35:55.908Z,4.85
2023-04-28T14:38:24.747Z,4.18
2023-04-28T14:40:53.950Z,4.75
2023-04-28T14:43:22.762Z,4.13
2023-04-28T14:45:51.941Z,4.43
2023-04-28T14:48:22.563Z,4.03
2023-04-28T14:50:51.991Z,5.40
2023-04-28T14:53:20.273Z,4.53
2023-04-28T14:55:49.248Z,5.53
2023-04-28T14:58:18.438Z,5.57
2023-04-28T15:00:47.876Z,4.15
2023-04-28T15:03:17.012Z,2.97
2023-04-28T15:05:46.948Z,4.10
2023-04-28T15:08:15.867Z,4.05
2023-04-28T15:10:44.328Z,4.05
2023-04-28T15:13:13.350Z,3.80
2023-04-28T15:15:42.217Z,3.42
2023-04-28T15:18:11.387Z,4.90
2023-04-28T15:20:42.439Z,4.20
2023-04-28T15:23:12.909Z,4.53
2023-04-28T15:25:41.759Z,5.75
2023-04-28T15:28:10.402Z,4.05
2023-04-28T15:30:41.390Z,6.28
2023-04-28T15:33:10.783Z,3.97
2023-04-28T15:35:40.227Z,4.50
2023-04-28T15:38:12.911Z,3.70
2023-04-28T15:40:42.167Z,5.25
2023-04-28T15:43:10.775Z,4.50
2023-04-28T15:45:40.967Z,3.30
2023-04-28T15:48:10.245Z,4.28
2023-04-28T15:50:38.744Z,3.47
2023-04-28T15:53:07.483Z,1.98
2023-04-28T15:55:38.139Z,3.15
2023-04-28T15:58:09.326Z,2.50
2023-04-28T16:00:38.112Z,3.83
2023-04-28T16:03:06.809Z,4.38
2023-04-28T16:05:35.919Z,2.75
2023-04-28T16:08:04.604Z,2.60
2023-04-28T16:10:33.381Z,5.15
2023-04-28T16:13:05.778Z,3.88
2023-04-28T16:15:34.652Z,4.00
2023-04-28T16:18:03.039Z,2.35
2023-04-28T16:20:31.862Z,2.65
2023-04-28T16:23:00.215Z,3.42
2023-04-28T16:25:29.110Z,3.97
2023-04-28T16:27:57.504Z,3.38
2023-04-28T16:30:27.771Z,3.05
2023-04-28T16:32:58.447Z,3.08
2023-04-28T16:35:27.222Z,3.35
2023-04-28T16:37:55.439Z,3.88
2023-04-28T16:40:23.645Z,4.30
2023-04-28T16:42:52.030Z,3.78
2023-04-28T16:45:21.135Z,2.08
2023-04-28T16:47:51.051Z,3.47
2023-04-28T16:50:19.956Z,2.63
2023-04-28T16:52:48.433Z,5.25
2023-04-28T16:55:16.920Z,2.70
2023-04-28T16:57:45.950Z,2.75
2023-04-28T17:00:15.385Z,2.17
2023-04-28T17:02:44.347Z,2.78
2023-04-28T17:05:14.452Z,2.47
2023-04-28T17:07:43.097Z,2.55
2023-04-28T17:10:12.132Z,2.53
2023-04-28T17:12:45.101Z,2.28
2023-04-28T17:15:18.382Z,3.55
2023-04-28T17:17:49.728Z,3.92
2023-04-28T17:20:20.367Z,6.10
2023-04-28T17:22:50.454Z,4.18
2023-04-28T17:25:19.552Z,6.35
2023-04-28T17:27:48.415Z,3.92
2023-04-28T17:30:17.656Z,2.80
2023-04-28T17:32:46.404Z,3.70
2023-04-28T17:35:15.466Z,4.75
2023-04-28T17:37:46.028Z,3.97
2023-04-28T17:40:15.801Z,3.13
2023-04-28T17:42:45.519Z,3.92
2023-04-28T17:45:14.136Z,3.15
2023-04-28T17:47:42.384Z,2.45
2023-04-28T17:50:12.827Z,2.67
2023-04-28T17:52:43.885Z,3.58
2023-04-28T17:55:16.238Z,4.53
2023-04-28T17:57:45.288Z,2.40
2023-04-28T18:00:15.295Z,3.58
2023-04-28T18:02:44.267Z,2.17
2023-04-28T18:05:12.841Z,2.17
2023-04-28T18:07:42.712Z,5.30
2023-04-28T18:10:11.827Z,2.90
2023-04-28T18:12:42.799Z,2.97
2023-04-28T18:15:12.982Z,2.25
2023-04-28T18:17:41.590Z,3.17
2023-04-28T18:20:12.558Z,1.52
2023-04-28T18:22:42.778Z,2.97
2023-04-28T18:25:13.510Z,2.67
2023-04-28T18:27:43.342Z,2.40
2023-04-28T18:30:12.334Z,1.88
2023-04-28T18:32:41.258Z,4.93
2023-04-28T18:35:10.700Z,4.80
2023-04-28T18:37:39.377Z,3.92
2023-04-28T18:40:09.855Z,3.08
2023-04-28T18:42:38.489Z,4.57
2023-04-28T18:47:41.403Z,2.90
2023-04-28T18:50:11.407Z,2.58
2023-04-28T18:52:40.077Z,4.38
2023-04-28T18:55:10.040Z,3.53
2023-04-28T18:57:40.920Z,4.10
2023-04-28T19:00:12.297Z,5.22
2023-04-28T19:02:41.361Z,3.65
2023-04-28T19:05:10.766Z,4.22
2023-04-28T19:07:39.720Z,4.28
2023-04-28T19:10:09.035Z,4.90
2023-04-28T19:12:37.771Z,4.43
2023-04-28T19:15:07.317Z,4.10
2023-04-28T19:17:38.822Z,5.47
2023-04-28T19:20:08.830Z,3.60
2023-04-28T19:22:39.381Z,2.70
2023-04-28T19:25:08.590Z,3.75
2023-04-28T19:27:39.584Z,3.15
2023-04-28T19:30:10.072Z,3.97
2023-04-28T19:32:41.083Z,4.40
2023-04-28T19:35:10.592Z,3.92
2023-04-28T19:37:38.996Z,3.05
2023-04-28T19:40:08.852Z,2.50
2023-04-28T19:42:37.831Z,3.15
2023-04-28T19:45:07.746Z,2.92
2023-04-28T19:47:37.252Z,1.85
2023-04-28T19:50:08.594Z,3.25
2023-04-28T19:52:38.009Z,1.85
2023-04-28T19:55:07.066Z,4.28
2023-04-28T19:57:36.213Z,3.70
2023-04-28T20:00:04.783Z,2.63
2023-04-28T20:02:34.282Z,1.65
2023-04-28T20:05:03.184Z,3.15
2023-04-28T20:07:33.779Z,3.15
2023-04-28T20:10:02.536Z,2.53
2023-04-28T20:12:31.289Z,4.15
2023-04-28T20:14:59.799Z,2.47
2023-04-28T20:17:28.485Z,3.60
2023-04-28T20:19:56.970Z,4.63
2023-04-28T20:22:25.537Z,3.15
2023-04-28T20:24:56.472Z,3.25
2023-04-28T20:27:25.505Z,4.00
2023-04-28T20:29:55.558Z,4.00
2023-04-28T20:32:23.747Z,1.95
2023-04-28T20:34:52.353Z,2.58
2023-04-28T20:37:21.702Z,2.33
2023-04-28T20:39:51.984Z,3.10
2023-04-28T20:42:21.736Z,2.42
2023-04-28T20:44:51.360Z,4.75
2023-04-28T20:47:19.891Z,2.95
2023-04-28T20:49:48.793Z,2.65
2023-04-28T20:52:18.574Z,3.78
2023-04-28T20:54:47.323Z,1.70
2023-04-28T20:57:15.666Z,1.92
2023-04-28T20:59:45.422Z,4.47
2023-04-28T21:02:13.870Z,54.17
2023-04-28T21:04:42.209Z,6.10
2023-04-28T21:07:10.614Z,8.15
2023-04-28T21:09:38.890Z,16.77
2023-04-28T21:12:07.669Z,94.60
2023-04-28T21:14:37.759Z,17.65
2023-04-28T21:17:08.524Z,4.20
2023-04-28T21:19:37.461Z,2.90
2023-04-28T21:22:05.617Z,2.30
2023-04-28T21:24:34.362Z,8.85
2023-04-28T21:27:04.406Z,5.35
2023-04-28T21:29:34.827Z,4.32
2023-04-28T21:32:03.361Z,5.13
2023-04-28T21:34:33.664Z,3.35
2023-04-28T21:37:02.558Z,8.45
2023-04-28T21:39:31.239Z,4.18
2023-04-28T21:42:00.851Z,6.10
2023-04-28T21:44:29.132Z,4.93
2023-04-28T21:46:58.431Z,15.25
2023-04-28T21:49:27.728Z,12.57
2023-04-28T21:51:57.526Z,4.28
2023-04-28T21:54:26.146Z,17.95
2023-04-28T21:56:56.165Z,16.50
2023-04-28T21:59:25.258Z,31.40
2023-04-28T22:01:54.315Z,87.47
2023-04-28T22:04:24.350Z,77.30
2023-04-28T22:06:53.380Z,30.15
2023-04-28T22:09:28.011Z,12.45
2023-04-28T22:11:56.484Z,10.32
2023-04-28T22:14:39.635Z,9.25
2023-04-28T22:17:10.353Z,62.83
2023-04-28T22:19:40.356Z,31.77
2023-04-28T22:22:09.664Z,11.18
2023-04-28T22:24:40.616Z,25.48
2023-04-28T22:27:12.569Z,26.00
2023-04-28T22:29:41.103Z,14.23
2023-04-28T22:32:10.797Z,14.32
2023-04-28T22:34:40.502Z,16.92
2023-04-28T22:37:09.852Z,59.25
2023-04-28T22:39:40.449Z,26.05
2023-04-28T22:42:09.470Z,15.23
2023-04-28T22:44:40.469Z,36.85
2023-04-28T22:47:11.057Z,13.57
2023-04-28T22:49:40.031Z,18.15
2023-04-28T22:52:09.545Z,23.52
2023-04-28T22:54:40.096Z,21.38
2023-04-28T22:57:09.376Z,5.53
2023-04-28T22:59:38.600Z,21.83
2023-04-28T23:02:09.065Z,105.35
2023-04-28T23:04:38.467Z,36.80
2023-04-28T23:07:08.127Z,17.13
2023-04-28T23:09:37.559Z,12.30
2023-04-28T23:12:09.421Z,15.32
2023-04-28T23:14:38.799Z,10.23
2023-04-28T23:17:08.403Z,14.55
2023-04-28T23:19:39.804Z,34.85
2023-04-28T23:22:09.352Z,48.90
2023-04-28T23:24:40.233Z,31.92
2023-04-28T23:27:11.750Z,77.18
2023-04-28T23:29:40.582Z,170.27
2023-04-28T23:32:09.685Z,31.50
2023-04-28T23:34:42.142Z,34.33
2023-04-28T23:37:11.637Z,66.35
2023-04-28T23:39:41.364Z,43.35
2023-04-28T23:42:14.576Z,81.38
2023-04-28T23:44:44.764Z,24.63
2023-04-28T23:47:14.302Z,16.88
2023-04-28T23:49:45.933Z,32.85
2023-04-28T23:52:22.532Z,29.20
2023-04-28T23:54:55.820Z,106.30
2023-04-28T23:57:27.338Z,112.88
2023-04-28T23:59:56.285Z,99.82
